Sodus, Michigan
Current Conditions -  °F | °C
As of 11:53 AM on Tuesday 27 Jan 2015 (Local Time) from KBEH Reporting Station
Clear Clear  
Wind Chill: 16°   Ceiling: Unl
Heat Index: 24°   Visibility: 10mi
Dew Point: 12°   Wind: 7mph
Humidity: 60%   Direction: 100°E
Pressure: 30.15"   Gusts: NA
Location:  42.04°N, 86.37°W
Report Text: KBEH 271653Z AUTO 10006KT 10SM CLR M04/M11 A3015 RMK AO2 SLP221 T10441111
Loading
Personal Weather Stations






























Interactive Weather Map New forecast layout! Learn more

10-Day Weather Forecast

Advertisements
Track Severe Weather on mobile